Sioux City, IA (51101)

2:49 AM CDT on June 03, 2015 (GMT -0500)
Smith Villa Heights | | Change Station
CLOSE
Current Station
Personal Weather Station
Location: Sioux City, IA
Elevation: 1201 ft
Nearby Weather Stations

Elev 1201 ft 42.51 °N, 96.44 °W | Updated 5 seconds ago

Partly Cloudy
Partly Cloudy
63.5 °F
Feels Like 63.5 °F
N
0.0
Wind Variable Wind from SSW
Gusts 0.0 mph

Today
High -- | Low -- °F
--% Chance of Precip.
Yesterday
High -- | Low -- °F
Precip. -- in
5:50 AM 8:57 PM
Full, 100% visible
Pressure 29.84 in
Visibility 10.0 miles
Clouds Clear
Dew Point 59 °F
Humidity 86%
Rainfall 0.00 in
Snow Depth Not available.
UV 0.0 out of 12
Pollen 8.00 out of 12
Air Quality Not available.
Flu Activity No Activity
METAR KSUX 030652Z 15010KT 10SM CLR 18/14 A2986 RMK AO2 SLP104 T01780139

More Conditions Fewer Conditions

Pressure 29.84 in
Visibility 10.0 miles
Clouds Clear
Dew Point 59 °F
Humidity 86%
Rainfall 0.00 in
Snow Depth Not available.
UV 0.0 out of 12
Pollen 8.00 out of 12
Air Quality Not available.
Flu Activity No Activity
METAR KSUX 030652Z 15010KT 10SM CLR 18/14 A2986 RMK AO2 SLP104 T01780139

More Conditions Fewer Conditions

10-Day Weather Forecast

×

Almanac

Astronomy

Jun. 03, 2015 Rise Set
Actual Time
Civil Twilight
Nautical Twilight
Astronomical Twilight
Moon
Length of Visible Light
Length of Day
Tomorrow will be .
, % of the Moon is Illuminated

Today's Extremes

State Highs State Lows

Community

WunderPhotos

Upload Photos

1,826,187 photos uploaded!

WunderBlogs® & News

Nearby

Air Quality

  Air Quality AQ Index Pollutant
Not available.

Snow Depth

Station Depth Elevation

Earthquake Activity

City Distance Mag. Time & Date
Minimum magnitude displayed is 2.5.

Coastal Water Temperatures

Place Temperature

Stations

Nearby Weather Stations

Station Location Temp. Windchill Dew Point Humidity Wind Precip. Elev Updated Type